sensor_id;sensor_type;location;lat;lon;timestamp;temperature;humidity
10304;DHT22;5197;48.152;8.590;2022-10-16T00:01:27;14.40;27.80
10304;DHT22;5197;48.152;8.590;2022-10-16T00:03:56;14.40;28.00
10304;DHT22;5197;48.152;8.590;2022-10-16T00:06:24;14.40;28.20
10304;DHT22;5197;48.152;8.590;2022-10-16T00:08:52;14.40;28.20
10304;DHT22;5197;48.152;8.590;2022-10-16T00:11:28;14.40;28.50
10304;DHT22;5197;48.152;8.590;2022-10-16T00:13:58;14.40;28.60
10304;DHT22;5197;48.152;8.590;2022-10-16T00:16:26;14.40;29.10
10304;DHT22;5197;48.152;8.590;2022-10-16T00:18:53;14.40;29.40
10304;DHT22;5197;48.152;8.590;2022-10-16T00:21:23;14.40;29.60
10304;DHT22;5197;48.152;8.590;2022-10-16T00:23:52;14.40;29.60
10304;DHT22;5197;48.152;8.590;2022-10-16T00:26:20;14.40;29.80
10304;DHT22;5197;48.152;8.590;2022-10-16T00:28:49;14.50;29.80
10304;DHT22;5197;48.152;8.590;2022-10-16T00:31:17;14.50;29.70
10304;DHT22;5197;48.152;8.590;2022-10-16T00:33:45;14.50;30.00
10304;DHT22;5197;48.152;8.590;2022-10-16T00:36:15;14.50;30.00
10304;DHT22;5197;48.152;8.590;2022-10-16T00:38:42;14.50;30.00
10304;DHT22;5197;48.152;8.590;2022-10-16T00:41:15;14.60;30.00
10304;DHT22;5197;48.152;8.590;2022-10-16T00:43:49;14.60;30.00
10304;DHT22;5197;48.152;8.590;2022-10-16T00:46:23;14.60;29.90
10304;DHT22;5197;48.152;8.590;2022-10-16T00:49:07;14.60;30.00
10304;DHT22;5197;48.152;8.590;2022-10-16T00:51:40;14.60;29.70
10304;DHT22;5197;48.152;8.590;2022-10-16T00:54:29;14.60;29.70
10304;DHT22;5197;48.152;8.590;2022-10-16T00:56:59;14.60;29.30
10304;DHT22;5197;48.152;8.590;2022-10-16T00:59:30;14.60;30.00
10304;DHT22;5197;48.152;8.590;2022-10-16T01:01:58;14.60;29.90
10304;DHT22;5197;48.152;8.590;2022-10-16T01:04:25;14.60;29.90
10304;DHT22;5197;48.152;8.590;2022-10-16T01:09:35;14.60;30.00
10304;DHT22;5197;48.152;8.590;2022-10-16T01:12:14;14.70;30.00
10304;DHT22;5197;48.152;8.590;2022-10-16T01:14:58;14.60;30.00
10304;DHT22;5197;48.152;8.590;2022-10-16T01:20:30;14.70;29.80
10304;DHT22;5197;48.152;8.590;2022-10-16T01:25:59;14.70;30.50
10304;DHT22;5197;48.152;8.590;2022-10-16T01:31:18;14.70;29.90
10304;DHT22;5197;48.152;8.590;2022-10-16T01:33:49;14.70;30.40
10304;DHT22;5197;48.152;8.590;2022-10-16T01:36:26;14.70;30.30
10304;DHT22;5197;48.152;8.590;2022-10-16T01:38:56;14.70;30.20
10304;DHT22;5197;48.152;8.590;2022-10-16T01:41:39;14.70;30.30
10304;DHT22;5197;48.152;8.590;2022-10-16T01:46:48;14.70;30.20
10304;DHT22;5197;48.152;8.590;2022-10-16T01:49:17;14.70;30.60
10304;DHT22;5197;48.152;8.590;2022-10-16T01:51:48;14.70;30.50
10304;DHT22;5197;48.152;8.590;2022-10-16T01:54:18;14.70;30.60
10304;DHT22;5197;48.152;8.590;2022-10-16T01:56:48;14.70;30.60
10304;DHT22;5197;48.152;8.590;2022-10-16T01:59:18;17.00;32.60
10304;DHT22;5197;48.152;8.590;2022-10-16T02:01:54;14.70;30.80
10304;DHT22;5197;48.152;8.590;2022-10-16T02:04:39;14.70;30.60
10304;DHT22;5197;48.152;8.590;2022-10-16T02:07:07;14.70;30.20
10304;DHT22;5197;48.152;8.590;2022-10-16T02:09:35;14.70;30.60
10304;DHT22;5197;48.152;8.590;2022-10-16T02:12:09;14.70;30.60
10304;DHT22;5197;48.152;8.590;2022-10-16T02:14:38;14.70;30.50
10304;DHT22;5197;48.152;8.590;2022-10-16T02:17:17;14.70;30.70
10304;DHT22;5197;48.152;8.590;2022-10-16T02:19:46;14.60;30.30
10304;DHT22;5197;48.152;8.590;2022-10-16T02:22:38;14.60;30.50
10304;DHT22;5197;48.152;8.590;2022-10-16T02:25:31;14.70;30.00
10304;DHT22;5197;48.152;8.590;2022-10-16T02:31:04;14.60;30.50
10304;DHT22;5197;48.152;8.590;2022-10-16T02:33:36;14.60;30.50
10304;DHT22;5197;48.152;8.590;2022-10-16T02:36:05;14.60;30.50
10304;DHT22;5197;48.152;8.590;2022-10-16T02:38:33;14.60;30.60
10304;DHT22;5197;48.152;8.590;2022-10-16T02:41:00;14.60;30.70
10304;DHT22;5197;48.152;8.590;2022-10-16T02:43:27;14.60;30.50
10304;DHT22;5197;48.152;8.590;2022-10-16T02:45:55;14.60;30.50
10304;DHT22;5197;48.152;8.590;2022-10-16T02:48:22;14.60;30.30
10304;DHT22;5197;48.152;8.590;2022-10-16T02:50:49;14.60;30.40
10304;DHT22;5197;48.152;8.590;2022-10-16T02:53:16;14.60;30.40
10304;DHT22;5197;48.152;8.590;2022-10-16T02:55:43;14.60;30.50
10304;DHT22;5197;48.152;8.590;2022-10-16T02:58:10;14.60;30.50
10304;DHT22;5197;48.152;8.590;2022-10-16T03:00:37;14.50;29.50
10304;DHT22;5197;48.152;8.590;2022-10-16T03:03:04;14.60;30.40
10304;DHT22;5197;48.152;8.590;2022-10-16T03:05:31;14.60;30.40
10304;DHT22;5197;48.152;8.590;2022-10-16T03:07:58;14.60;30.30
10304;DHT22;5197;48.152;8.590;2022-10-16T03:10:27;14.60;30.40
10304;DHT22;5197;48.152;8.590;2022-10-16T03:12:54;14.60;30.30
10304;DHT22;5197;48.152;8.590;2022-10-16T03:15:21;14.60;30.40
10304;DHT22;5197;48.152;8.590;2022-10-16T03:17:48;14.60;30.40
10304;DHT22;5197;48.152;8.590;2022-10-16T03:20:15;14.50;30.40
10304;DHT22;5197;48.152;8.590;2022-10-16T03:22:42;17.00;32.50
10304;DHT22;5197;48.152;8.590;2022-10-16T03:25:09;14.60;30.50
10304;DHT22;5197;48.152;8.590;2022-10-16T03:27:36;14.60;30.40
10304;DHT22;5197;48.152;8.590;2022-10-16T03:30:03;14.60;30.50
10304;DHT22;5197;48.152;8.590;2022-10-16T03:32:30;14.60;30.60
10304;DHT22;5197;48.152;8.590;2022-10-16T03:34:57;14.50;30.60
10304;DHT22;5197;48.152;8.590;2022-10-16T03:37:25;14.50;30.80
10304;DHT22;5197;48.152;8.590;2022-10-16T03:39:52;14.50;30.80
10304;DHT22;5197;48.152;8.590;2022-10-16T03:42:19;14.50;30.80
10304;DHT22;5197;48.152;8.590;2022-10-16T03:44:46;14.50;31.00
10304;DHT22;5197;48.152;8.590;2022-10-16T03:47:14;14.50;31.10
10304;DHT22;5197;48.152;8.590;2022-10-16T03:49:41;14.50;31.30
10304;DHT22;5197;48.152;8.590;2022-10-16T03:52:08;14.50;31.40
10304;DHT22;5197;48.152;8.590;2022-10-16T03:54:35;14.50;31.50
10304;DHT22;5197;48.152;8.590;2022-10-16T03:57:02;14.50;31.70
10304;DHT22;5197;48.152;8.590;2022-10-16T03:59:29;14.50;31.80
10304;DHT22;5197;48.152;8.590;2022-10-16T04:01:56;14.50;31.90
10304;DHT22;5197;48.152;8.590;2022-10-16T04:04:23;14.50;32.00
10304;DHT22;5197;48.152;8.590;2022-10-16T04:06:51;14.50;32.00
10304;DHT22;5197;48.152;8.590;2022-10-16T04:09:18;14.50;31.90
10304;DHT22;5197;48.152;8.590;2022-10-16T04:11:45;14.50;31.90
10304;DHT22;5197;48.152;8.590;2022-10-16T04:14:12;14.50;31.90
10304;DHT22;5197;48.152;8.590;2022-10-16T04:16:40;14.50;31.90
10304;DHT22;5197;48.152;8.590;2022-10-16T04:19:07;14.50;32.00
10304;DHT22;5197;48.152;8.590;2022-10-16T04:21:34;14.50;32.00
10304;DHT22;5197;48.152;8.590;2022-10-16T04:24:00;14.50;32.00
10304;DHT22;5197;48.152;8.590;2022-10-16T04:26:27;14.50;32.00
10304;DHT22;5197;48.152;8.590;2022-10-16T04:28:55;14.50;32.00
10304;DHT22;5197;48.152;8.590;2022-10-16T04:31:22;14.50;32.10
10304;DHT22;5197;48.152;8.590;2022-10-16T04:33:49;14.50;32.00
10304;DHT22;5197;48.152;8.590;2022-10-16T04:36:16;14.50;32.00
10304;DHT22;5197;48.152;8.590;2022-10-16T04:38:43;14.50;32.00
10304;DHT22;5197;48.152;8.590;2022-10-16T04:41:10;14.50;31.90
10304;DHT22;5197;48.152;8.590;2022-10-16T04:43:37;14.50;31.90
10304;DHT22;5197;48.152;8.590;2022-10-16T04:46:05;14.50;31.70
10304;DHT22;5197;48.152;8.590;2022-10-16T04:48:32;14.50;31.60
10304;DHT22;5197;48.152;8.590;2022-10-16T04:50:59;14.50;31.40
10304;DHT22;5197;48.152;8.590;2022-10-16T04:53:26;14.50;31.30
10304;DHT22;5197;48.152;8.590;2022-10-16T04:55:53;14.50;31.30
10304;DHT22;5197;48.152;8.590;2022-10-16T04:58:20;14.50;31.40
10304;DHT22;5197;48.152;8.590;2022-10-16T05:00:47;14.50;31.20
10304;DHT22;5197;48.152;8.590;2022-10-16T05:03:14;14.50;31.20
10304;DHT22;5197;48.152;8.590;2022-10-16T05:05:45;14.50;31.20
10304;DHT22;5197;48.152;8.590;2022-10-16T05:08:14;14.50;30.90
10304;DHT22;5197;48.152;8.590;2022-10-16T05:10:43;14.50;31.00
10304;DHT22;5197;48.152;8.590;2022-10-16T05:13:10;14.50;30.80
10304;DHT22;5197;48.152;8.590;2022-10-16T05:15:37;14.50;30.80
10304;DHT22;5197;48.152;8.590;2022-10-16T05:18:04;14.50;30.90
10304;DHT22;5197;48.152;8.590;2022-10-16T05:20:31;14.50;30.80
10304;DHT22;5197;48.152;8.590;2022-10-16T05:22:58;14.50;30.90
10304;DHT22;5197;48.152;8.590;2022-10-16T05:25:26;14.50;30.70
10304;DHT22;5197;48.152;8.590;2022-10-16T05:27:53;14.50;30.80
10304;DHT22;5197;48.152;8.590;2022-10-16T05:30:20;14.50;30.90
10304;DHT22;5197;48.152;8.590;2022-10-16T05:32:48;14.50;30.70
10304;DHT22;5197;48.152;8.590;2022-10-16T05:35:16;14.50;30.70
10304;DHT22;5197;48.152;8.590;2022-10-16T05:37:44;14.50;30.70
10304;DHT22;5197;48.152;8.590;2022-10-16T05:40:11;14.50;30.60
10304;DHT22;5197;48.152;8.590;2022-10-16T05:42:40;14.50;30.50
10304;DHT22;5197;48.152;8.590;2022-10-16T05:45:10;14.50;30.50
10304;DHT22;5197;48.152;8.590;2022-10-16T05:47:38;14.50;30.60
10304;DHT22;5197;48.152;8.590;2022-10-16T05:50:06;14.60;30.60
10304;DHT22;5197;48.152;8.590;2022-10-16T05:52:33;14.50;30.50
10304;DHT22;5197;48.152;8.590;2022-10-16T05:55:00;14.50;30.50
10304;DHT22;5197;48.152;8.590;2022-10-16T05:57:26;14.60;30.40
10304;DHT22;5197;48.152;8.590;2022-10-16T05:59:54;14.50;30.20
10304;DHT22;5197;48.152;8.590;2022-10-16T06:02:21;14.60;30.10
10304;DHT22;5197;48.152;8.590;2022-10-16T06:04:48;14.60;30.00
10304;DHT22;5197;48.152;8.590;2022-10-16T06:07:15;14.60;30.00
10304;DHT22;5197;48.152;8.590;2022-10-16T06:09:42;14.60;30.00
10304;DHT22;5197;48.152;8.590;2022-10-16T06:12:09;14.60;30.00
10304;DHT22;5197;48.152;8.590;2022-10-16T06:14:35;14.60;29.90
10304;DHT22;5197;48.152;8.590;2022-10-16T06:17:02;14.60;29.90
10304;DHT22;5197;48.152;8.590;2022-10-16T06:19:29;14.60;29.70
10304;DHT22;5197;48.152;8.590;2022-10-16T06:21:58;14.60;29.70
10304;DHT22;5197;48.152;8.590;2022-10-16T06:24:25;14.60;29.70
10304;DHT22;5197;48.152;8.590;2022-10-16T06:26:52;14.60;29.60
10304;DHT22;5197;48.152;8.590;2022-10-16T06:29:19;14.70;29.60
10304;DHT22;5197;48.152;8.590;2022-10-16T06:31:46;14.70;29.50
10304;DHT22;5197;48.152;8.590;2022-10-16T06:34:13;14.70;29.30
10304;DHT22;5197;48.152;8.590;2022-10-16T06:36:40;14.70;29.20
10304;DHT22;5197;48.152;8.590;2022-10-16T06:39:08;14.70;29.10
10304;DHT22;5197;48.152;8.590;2022-10-16T06:41:35;14.70;29.10
10304;DHT22;5197;48.152;8.590;2022-10-16T06:44:05;14.70;29.10
10304;DHT22;5197;48.152;8.590;2022-10-16T06:46:32;14.80;29.20
10304;DHT22;5197;48.152;8.590;2022-10-16T06:48:59;14.80;29.00
10304;DHT22;5197;48.152;8.590;2022-10-16T06:51:26;14.80;29.00
10304;DHT22;5197;48.152;8.590;2022-10-16T06:53:55;14.80;29.70
10304;DHT22;5197;48.152;8.590;2022-10-16T06:56:32;14.90;28.80
10304;DHT22;5197;48.152;8.590;2022-10-16T06:59:00;14.90;28.80
10304;DHT22;5197;48.152;8.590;2022-10-16T07:01:28;14.90;28.50
10304;DHT22;5197;48.152;8.590;2022-10-16T07:03:55;14.90;28.30
10304;DHT22;5197;48.152;8.590;2022-10-16T07:06:25;15.00;28.20
10304;DHT22;5197;48.152;8.590;2022-10-16T07:08:52;15.00;28.10
10304;DHT22;5197;48.152;8.590;2022-10-16T07:11:23;15.00;27.90
10304;DHT22;5197;48.152;8.590;2022-10-16T07:13:51;15.10;27.80
10304;DHT22;5197;48.152;8.590;2022-10-16T07:16:27;15.10;27.70
10304;DHT22;5197;48.152;8.590;2022-10-16T07:18:56;15.10;27.40
10304;DHT22;5197;48.152;8.590;2022-10-16T07:21:32;15.10;27.50
10304;DHT22;5197;48.152;8.590;2022-10-16T07:24:04;15.10;27.20
10304;DHT22;5197;48.152;8.590;2022-10-16T07:26:34;15.20;27.20
10304;DHT22;5197;48.152;8.590;2022-10-16T07:29:01;15.20;27.00
10304;DHT22;5197;48.152;8.590;2022-10-16T07:31:28;15.20;26.70
10304;DHT22;5197;48.152;8.590;2022-10-16T07:33:55;15.20;26.40
10304;DHT22;5197;48.152;8.590;2022-10-16T07:36:24;15.20;26.10
10304;DHT22;5197;48.152;8.590;2022-10-16T07:38:51;15.30;25.80
10304;DHT22;5197;48.152;8.590;2022-10-16T07:41:24;15.30;25.80
10304;DHT22;5197;48.152;8.590;2022-10-16T07:43:52;15.30;25.50
10304;DHT22;5197;48.152;8.590;2022-10-16T07:46:20;15.30;24.90
10304;DHT22;5197;48.152;8.590;2022-10-16T07:48:48;15.30;24.40
10304;DHT22;5197;48.152;8.590;2022-10-16T07:51:17;15.50;23.60
10304;DHT22;5197;48.152;8.590;2022-10-16T07:53:44;15.40;24.50
10304;DHT22;5197;48.152;8.590;2022-10-16T07:56:12;15.50;24.60
10304;DHT22;5197;48.152;8.590;2022-10-16T07:58:39;15.50;24.50
10304;DHT22;5197;48.152;8.590;2022-10-16T08:01:09;15.50;24.50
10304;DHT22;5197;48.152;8.590;2022-10-16T08:03:36;15.60;24.60
10304;DHT22;5197;48.152;8.590;2022-10-16T08:06:04;15.60;24.50
10304;DHT22;5197;48.152;8.590;2022-10-16T08:08:31;15.60;24.60
10304;DHT22;5197;48.152;8.590;2022-10-16T08:10:59;15.70;24.60
10304;DHT22;5197;48.152;8.590;2022-10-16T08:13:25;15.70;24.70
10304;DHT22;5197;48.152;8.590;2022-10-16T08:15:53;15.70;24.70
10304;DHT22;5197;48.152;8.590;2022-10-16T08:18:20;15.80;24.70
10304;DHT22;5197;48.152;8.590;2022-10-16T08:20:47;15.80;24.70
10304;DHT22;5197;48.152;8.590;2022-10-16T08:23:14;15.80;24.70
10304;DHT22;5197;48.152;8.590;2022-10-16T08:25:41;15.80;24.60
10304;DHT22;5197;48.152;8.590;2022-10-16T08:28:10;15.90;24.70
10304;DHT22;5197;48.152;8.590;2022-10-16T08:30:38;15.90;24.80
10304;DHT22;5197;48.152;8.590;2022-10-16T08:33:05;15.90;24.30
10304;DHT22;5197;48.152;8.590;2022-10-16T08:35:33;15.90;24.00
10304;DHT22;5197;48.152;8.590;2022-10-16T08:38:02;16.00;23.40
10304;DHT22;5197;48.152;8.590;2022-10-16T08:40:31;16.10;23.10
10304;DHT22;5197;48.152;8.590;2022-10-16T08:43:24;16.10;23.00
10304;DHT22;5197;48.152;8.590;2022-10-16T08:46:21;16.20;22.20
10304;DHT22;5197;48.152;8.590;2022-10-16T08:48:55;16.30;22.40
10304;DHT22;5197;48.152;8.590;2022-10-16T08:51:30;16.20;22.30
10304;DHT22;5197;48.152;8.590;2022-10-16T08:54:22;16.30;22.30
10304;DHT22;5197;48.152;8.590;2022-10-16T08:56:46;16.30;22.10
10304;DHT22;5197;48.152;8.590;2022-10-16T08:59:14;16.30;21.90
10304;DHT22;5197;48.152;8.590;2022-10-16T09:01:46;16.40;21.80
10304;DHT22;5197;48.152;8.590;2022-10-16T09:07:32;16.50;21.30
10304;DHT22;5197;48.152;8.590;2022-10-16T09:10:32;16.50;21.40
10304;DHT22;5197;48.152;8.590;2022-10-16T09:13:21;16.60;20.10
10304;DHT22;5197;48.152;8.590;2022-10-16T09:21:23;16.70;20.30
10304;DHT22;5197;48.152;8.590;2022-10-16T09:23:51;16.70;20.00
10304;DHT22;5197;48.152;8.590;2022-10-16T09:26:18;16.80;20.20
10304;DHT22;5197;48.152;8.590;2022-10-16T09:28:48;16.80;20.10
10304;DHT22;5197;48.152;8.590;2022-10-16T09:31:20;16.90;20.10
10304;DHT22;5197;48.152;8.590;2022-10-16T09:34:00;16.90;19.80
10304;DHT22;5197;48.152;8.590;2022-10-16T09:36:40;17.00;20.00
10304;DHT22;5197;48.152;8.590;2022-10-16T09:39:09;17.00;20.10
10304;DHT22;5197;48.152;8.590;2022-10-16T09:41:39;17.00;19.90
10304;DHT22;5197;48.152;8.590;2022-10-16T09:44:23;17.00;19.90
10304;DHT22;5197;48.152;8.590;2022-10-16T09:47:12;17.10;19.60
10304;DHT22;5197;48.152;8.590;2022-10-16T09:49:54;17.10;19.20
10304;DHT22;5197;48.152;8.590;2022-10-16T09:52:23;17.10;19.40
10304;DHT22;5197;48.152;8.590;2022-10-16T09:54:55;17.10;19.10
10304;DHT22;5197;48.152;8.590;2022-10-16T09:57:22;17.20;19.00
10304;DHT22;5197;48.152;8.590;2022-10-16T10:02:20;17.20;18.80
10304;DHT22;5197;48.152;8.590;2022-10-16T10:04:52;17.20;18.50
10304;DHT22;5197;48.152;8.590;2022-10-16T10:07:42;17.30;18.50
10304;DHT22;5197;48.152;8.590;2022-10-16T10:10:24;17.30;18.20
10304;DHT22;5197;48.152;8.590;2022-10-16T10:12:53;17.40;18.30
10304;DHT22;5197;48.152;8.590;2022-10-16T10:15:20;17.40;19.70
10304;DHT22;5197;48.152;8.590;2022-10-16T10:20:29;17.50;18.00
10304;DHT22;5197;48.152;8.590;2022-10-16T10:22:59;17.60;17.90
10304;DHT22;5197;48.152;8.590;2022-10-16T10:25:41;17.60;17.60
10304;DHT22;5197;48.152;8.590;2022-10-16T10:28:21;17.70;16.70
10304;DHT22;5197;48.152;8.590;2022-10-16T10:33:37;17.90;16.20
10304;DHT22;5197;48.152;8.590;2022-10-16T10:36:25;18.00;15.90
10304;DHT22;5197;48.152;8.590;2022-10-16T10:42:34;18.20;15.80
10304;DHT22;5197;48.152;8.590;2022-10-16T10:45:16;18.30;15.30
10304;DHT22;5197;48.152;8.590;2022-10-16T10:56:42;18.50;14.00
10304;DHT22;5197;48.152;8.590;2022-10-16T11:15:55;19.00;13.50
10304;DHT22;5197;48.152;8.590;2022-10-16T11:21:13;19.10;12.80
10304;DHT22;5197;48.152;8.590;2022-10-16T11:23:46;19.20;12.80
10304;DHT22;5197;48.152;8.590;2022-10-16T11:26:23;19.30;12.80
10304;DHT22;5197;48.152;8.590;2022-10-16T11:28:56;19.30;12.50
10304;DHT22;5197;48.152;8.590;2022-10-16T11:31:39;19.40;11.80
10304;DHT22;5197;48.152;8.590;2022-10-16T11:34:41;19.50;11.90
10304;DHT22;5197;48.152;8.590;2022-10-16T11:37:38;19.60;11.70
10304;DHT22;5197;48.152;8.590;2022-10-16T11:40:31;19.70;11.10
10304;DHT22;5197;48.152;8.590;2022-10-16T11:43:13;19.90;9.40
10304;DHT22;5197;48.152;8.590;2022-10-16T11:45:45;20.00;7.50
10304;DHT22;5197;48.152;8.590;2022-10-16T11:48:33;20.10;7.90
10304;DHT22;5197;48.152;8.590;2022-10-16T11:51:19;20.20;7.60
10304;DHT22;5197;48.152;8.590;2022-10-16T11:56:30;20.50;7.00
10304;DHT22;5197;48.152;8.590;2022-10-16T11:59:08;20.50;4.70
10304;DHT22;5197;48.152;8.590;2022-10-16T12:01:50;20.60;4.60
10304;DHT22;5197;48.152;8.590;2022-10-16T12:04:34;20.80;4.90
10304;DHT22;5197;48.152;8.590;2022-10-16T12:07:31;20.80;4.80
10304;DHT22;5197;48.152;8.590;2022-10-16T12:10:20;20.80;3.50
10304;DHT22;5197;48.152;8.590;2022-10-16T12:12:53;21.00;2.80
10304;DHT22;5197;48.152;8.590;2022-10-16T12:15:29;21.00;1.30
10304;DHT22;5197;48.152;8.590;2022-10-16T12:18:24;21.00;2.00
10304;DHT22;5197;48.152;8.590;2022-10-16T12:20:58;21.00;3.00
10304;DHT22;5197;48.152;8.590;2022-10-16T12:23:54;21.00;2.10
10304;DHT22;5197;48.152;8.590;2022-10-16T12:26:48;21.00;1.80
10304;DHT22;5197;48.152;8.590;2022-10-16T12:29:36;21.10;1.00
10304;DHT22;5197;48.152;8.590;2022-10-16T12:35:21;21.20;1.00
10304;DHT22;5197;48.152;8.590;2022-10-16T12:37:49;21.20;1.00
10304;DHT22;5197;48.152;8.590;2022-10-16T12:40:29;21.30;1.00
10304;DHT22;5197;48.152;8.590;2022-10-16T12:42:57;21.40;1.00
10304;DHT22;5197;48.152;8.590;2022-10-16T12:47:55;21.50;1.00
10304;DHT22;5197;48.152;8.590;2022-10-16T12:52:59;21.50;1.00
10304;DHT22;5197;48.152;8.590;2022-10-16T12:55:26;21.60;1.00
10304;DHT22;5197;48.152;8.590;2022-10-16T13:00:57;21.80;1.00
10304;DHT22;5197;48.152;8.590;2022-10-16T13:06:19;21.90;1.00
10304;DHT22;5197;48.152;8.590;2022-10-16T13:11:52;21.90;1.00
10304;DHT22;5197;48.152;8.590;2022-10-16T13:14:43;22.00;1.00
10304;DHT22;5197;48.152;8.590;2022-10-16T13:17:31;22.00;1.00
10304;DHT22;5197;48.152;8.590;2022-10-16T13:26:01;22.00;1.00
10304;DHT22;5197;48.152;8.590;2022-10-16T13:28:31;22.00;1.00
10304;DHT22;5197;48.152;8.590;2022-10-16T13:31:00;22.10;1.00
10304;DHT22;5197;48.152;8.590;2022-10-16T13:33:41;22.10;1.00
10304;DHT22;5197;48.152;8.590;2022-10-16T13:36:27;22.10;1.00
10304;DHT22;5197;48.152;8.590;2022-10-16T13:39:13;22.10;1.00
10304;DHT22;5197;48.152;8.590;2022-10-16T13:41:41;22.10;1.00
10304;DHT22;5197;48.152;8.590;2022-10-16T13:44:19;22.10;1.00
10304;DHT22;5197;48.152;8.590;2022-10-16T13:46:46;22.20;1.00
10304;DHT22;5197;48.152;8.590;2022-10-16T13:49:17;22.20;1.00
10304;DHT22;5197;48.152;8.590;2022-10-16T13:51:57;22.30;1.00
10304;DHT22;5197;48.152;8.590;2022-10-16T13:54:26;22.40;1.00
10304;DHT22;5197;48.152;8.590;2022-10-16T13:56:55;22.40;1.00
10304;DHT22;5197;48.152;8.590;2022-10-16T13:59:36;22.40;1.00
10304;DHT22;5197;48.152;8.590;2022-10-16T14:02:26;22.40;1.00
10304;DHT22;5197;48.152;8.590;2022-10-16T14:04:55;22.40;1.00
10304;DHT22;5197;48.152;8.590;2022-10-16T14:07:29;22.30;1.00
10304;DHT22;5197;48.152;8.590;2022-10-16T14:10:05;22.30;1.00
10304;DHT22;5197;48.152;8.590;2022-10-16T14:12:34;22.30;1.00
10304;DHT22;5197;48.152;8.590;2022-10-16T14:15:01;22.30;1.00
10304;DHT22;5197;48.152;8.590;2022-10-16T14:17:34;22.30;1.00
10304;DHT22;5197;48.152;8.590;2022-10-16T14:20:04;22.40;1.00
10304;DHT22;5197;48.152;8.590;2022-10-16T14:22:43;22.40;1.00
10304;DHT22;5197;48.152;8.590;2022-10-16T14:28:22;22.40;1.00
10304;DHT22;5197;48.152;8.590;2022-10-16T14:33:24;22.40;1.00
10304;DHT22;5197;48.152;8.590;2022-10-16T14:38:42;22.40;1.00
10304;DHT22;5197;48.152;8.590;2022-10-16T14:41:10;22.50;1.00
10304;DHT22;5197;48.152;8.590;2022-10-16T14:43:40;22.50;1.00
10304;DHT22;5197;48.152;8.590;2022-10-16T14:46:13;22.40;1.00
10304;DHT22;5197;48.152;8.590;2022-10-16T14:48:47;22.40;1.00
10304;DHT22;5197;48.152;8.590;2022-10-16T14:51:16;22.40;1.00
10304;DHT22;5197;48.152;8.590;2022-10-16T14:53:44;22.30;1.00
10304;DHT22;5197;48.152;8.590;2022-10-16T14:56:20;22.30;1.00
10304;DHT22;5197;48.152;8.590;2022-10-16T14:58:50;22.30;1.00
10304;DHT22;5197;48.152;8.590;2022-10-16T15:01:18;22.30;1.00
10304;DHT22;5197;48.152;8.590;2022-10-16T15:03:45;22.20;1.00
10304;DHT22;5197;48.152;8.590;2022-10-16T15:06:14;22.20;1.00
10304;DHT22;5197;48.152;8.590;2022-10-16T15:08:41;22.20;1.00
10304;DHT22;5197;48.152;8.590;2022-10-16T15:11:14;22.20;1.00
10304;DHT22;5197;48.152;8.590;2022-10-16T15:13:42;22.10;1.00
10304;DHT22;5197;48.152;8.590;2022-10-16T15:16:14;22.10;1.00
10304;DHT22;5197;48.152;8.590;2022-10-16T15:18:41;22.10;1.00
10304;DHT22;5197;48.152;8.590;2022-10-16T15:21:28;22.10;1.00
10304;DHT22;5197;48.152;8.590;2022-10-16T15:23:56;22.10;1.00
10304;DHT22;5197;48.152;8.590;2022-10-16T15:26:25;22.00;1.00
10304;DHT22;5197;48.152;8.590;2022-10-16T15:28:52;22.00;1.00
10304;DHT22;5197;48.152;8.590;2022-10-16T15:31:19;21.90;1.00
10304;DHT22;5197;48.152;8.590;2022-10-16T15:33:54;21.90;1.00
10304;DHT22;5197;48.152;8.590;2022-10-16T15:36:26;21.90;1.00
10304;DHT22;5197;48.152;8.590;2022-10-16T15:38:53;21.90;1.00
10304;DHT22;5197;48.152;8.590;2022-10-16T15:41:21;21.90;1.00
10304;DHT22;5197;48.152;8.590;2022-10-16T15:43:49;21.90;1.00
10304;DHT22;5197;48.152;8.590;2022-10-16T15:46:21;21.80;1.00
10304;DHT22;5197;48.152;8.590;2022-10-16T15:48:50;21.80;1.00
10304;DHT22;5197;48.152;8.590;2022-10-16T15:51:18;21.80;1.00
10304;DHT22;5197;48.152;8.590;2022-10-16T15:53:45;21.70;1.00
10304;DHT22;5197;48.152;8.590;2022-10-16T15:56:14;21.70;1.00
10304;DHT22;5197;48.152;8.590;2022-10-16T15:58:41;21.60;1.00
10304;DHT22;5197;48.152;8.590;2022-10-16T16:01:08;21.60;1.00
10304;DHT22;5197;48.152;8.590;2022-10-16T16:03:38;21.50;1.00
10304;DHT22;5197;48.152;8.590;2022-10-16T16:06:09;21.50;1.00
10304;DHT22;5197;48.152;8.590;2022-10-16T16:08:36;21.40;1.00
10304;DHT22;5197;48.152;8.590;2022-10-16T16:11:09;21.30;1.00
10304;DHT22;5197;48.152;8.590;2022-10-16T16:13:36;21.30;1.00
10304;DHT22;5197;48.152;8.590;2022-10-16T16:16:10;21.20;1.00
10304;DHT22;5197;48.152;8.590;2022-10-16T16:18:38;21.10;1.00
10304;DHT22;5197;48.152;8.590;2022-10-16T16:21:05;21.00;1.00
10304;DHT22;5197;48.152;8.590;2022-10-16T16:23:32;20.90;1.00
10304;DHT22;5197;48.152;8.590;2022-10-16T16:28:31;20.80;1.00
10304;DHT22;5197;48.152;8.590;2022-10-16T16:30:58;20.70;1.00
10304;DHT22;5197;48.152;8.590;2022-10-16T16:33:25;20.60;1.00
10304;DHT22;5197;48.152;8.590;2022-10-16T16:35:58;20.50;1.00
10304;DHT22;5197;48.152;8.590;2022-10-16T16:38:25;20.40;1.00
10304;DHT22;5197;48.152;8.590;2022-10-16T16:40:53;20.30;1.00
10304;DHT22;5197;48.152;8.590;2022-10-16T16:43:26;20.20;1.00
10304;DHT22;5197;48.152;8.590;2022-10-16T16:45:54;20.10;1.00
10304;DHT22;5197;48.152;8.590;2022-10-16T16:48:21;19.90;1.00
10304;DHT22;5197;48.152;8.590;2022-10-16T16:50:48;19.70;1.00
10304;DHT22;5197;48.152;8.590;2022-10-16T16:53:15;19.70;1.00
10304;DHT22;5197;48.152;8.590;2022-10-16T16:55:42;19.70;1.00
10304;DHT22;5197;48.152;8.590;2022-10-16T16:58:09;19.60;1.00
10304;DHT22;5197;48.152;8.590;2022-10-16T17:00:36;19.50;1.00
10304;DHT22;5197;48.152;8.590;2022-10-16T17:03:03;19.40;1.00
10304;DHT22;5197;48.152;8.590;2022-10-16T17:05:30;19.30;1.00
10304;DHT22;5197;48.152;8.590;2022-10-16T17:07:57;19.20;1.00
10304;DHT22;5197;48.152;8.590;2022-10-16T17:10:24;19.10;1.00
10304;DHT22;5197;48.152;8.590;2022-10-16T17:12:51;19.00;1.00
10304;DHT22;5197;48.152;8.590;2022-10-16T17:15:21;18.90;1.00
10304;DHT22;5197;48.152;8.590;2022-10-16T17:17:48;18.80;1.00
10304;DHT22;5197;48.152;8.590;2022-10-16T17:20:15;18.70;1.00
10304;DHT22;5197;48.152;8.590;2022-10-16T17:22:42;18.60;1.00
10304;DHT22;5197;48.152;8.590;2022-10-16T17:25:10;18.60;1.00
10304;DHT22;5197;48.152;8.590;2022-10-16T17:27:37;18.50;1.00
10304;DHT22;5197;48.152;8.590;2022-10-16T17:30:05;18.30;1.00
10304;DHT22;5197;48.152;8.590;2022-10-16T17:32:32;18.20;1.00
10304;DHT22;5197;48.152;8.590;2022-10-16T17:34:59;18.10;1.00
10304;DHT22;5197;48.152;8.590;2022-10-16T17:37:26;18.10;1.10
10304;DHT22;5197;48.152;8.590;2022-10-16T17:39:53;18.00;1.20
10304;DHT22;5197;48.152;8.590;2022-10-16T17:42:20;17.90;1.60
10304;DHT22;5197;48.152;8.590;2022-10-16T17:44:47;17.90;2.20
10304;DHT22;5197;48.152;8.590;2022-10-16T17:47:14;17.80;2.80
10304;DHT22;5197;48.152;8.590;2022-10-16T17:49:41;17.70;2.80
10304;DHT22;5197;48.152;8.590;2022-10-16T17:52:08;17.60;2.60
10304;DHT22;5197;48.152;8.590;2022-10-16T17:54:35;17.50;3.60
10304;DHT22;5197;48.152;8.590;2022-10-16T17:57:02;17.50;2.60
10304;DHT22;5197;48.152;8.590;2022-10-16T17:59:29;17.40;2.50